Dal Kalahari — A8FQ8 — position and weather

sailwx.info

Track history (hours):
 
Tides and Currents Weather Stations Pressure Air Temp Water Temp Dewpoint Dewpoint Depression Visibility Wind Speed Wind Dir Waves Ship Positions

Dal Kalahari

Last reported at 2015-Jan-28 16:29 UTC. Time now 2015-Jan-30 20:11 UTC.
Position S 27°04' E 112°36'.

Length 266 m; beam 37 m; draft 12.5 m.

Type: Cargo ship. MMSI: 636090797.

Date/timePositionNaut miles runAvg speedWind from/ knotsBaromVisibWave heightAir tempDewpointWater temp
2015-Jan-28 16:29S 27°04' E 112°36'2914.4
2015-Jan-28 14:29S 27°31' E 112°47'30114.4
2015-Jan-27 17:33S 31°54' E 115°34'1312.5
2015-Jan-27 16:33S 32°03' E 115°44'1 1.1
2015-Jan-27 15:31S 32°03' E 115°45'0 0.0
2015-Jan-27 14:31S 32°03' E 115°45'0 0.0
2015-Jan-27 13:31S 32°03' E 115°45'0 0.0
2015-Jan-27 12:31S 32°03' E 115°45'0 0.0
2015-Jan-27 11:31S 32°03' E 115°45'0 0.0
2015-Jan-27 10:31S 32°03' E 115°45'0 0.0
2015-Jan-27 09:31S 32°03' E 115°45'0 0.0
2015-Jan-27 08:31S 32°03' E 115°45'0 0.0
2015-Jan-27 07:31S 32°03' E 115°45'0 0.0
2015-Jan-27 06:31S 32°03' E 115°45'0 0.0
2015-Jan-27 05:31S 32°03' E 115°45'0 0.0
2015-Jan-27 04:31S 32°03' E 115°45'0 0.0
2015-Jan-27 03:31S 32°03' E 115°45'0 0.0
2015-Jan-27 02:31S 32°03' E 115°45'0 0.0
2015-Jan-27 01:31S 32°03' E 115°45'0 0.0
2015-Jan-27 00:31S 32°03' E 115°45'0 0.0
2015-Jan-26 23:31S 32°03' E 115°45'0 0.0
2015-Jan-26 22:31S 32°03' E 115°45'0 0.0
2015-Jan-26 21:31S 32°03' E 115°45'0 0.0
2015-Jan-26 20:31S 32°03' E 115°45'0 0.0
2015-Jan-26 19:31S 32°03' E 115°45'0 0.0
2015-Jan-26 18:31S 32°03' E 115°45'0 0.0
2015-Jan-26 17:31S 32°03' E 115°45'0 0.0
2015-Jan-26 16:31S 32°03' E 115°45'0 0.0
2015-Jan-26 15:31S 32°03' E 115°45'0 0.0
2015-Jan-26 14:31S 32°03' E 115°45'3 3.2
2015-Jan-26 13:33S 32°01' E 115°42'1111.2
2015-Jan-26 12:33S 31°56' E 115°30'1313.1
2015-Jan-26 11:33S 32°06' E 115°21'1615.8
2015-Jan-26 10:33S 32°21' E 115°15'1515.1
2015-Jan-26 09:33S 32°36' E 115°09'1514.9
2015-Jan-26 08:33S 32°50' E 115°04'  
2015-Jan-22 11:29S 38°30' E 140°09'4916.7
2015-Jan-22 08:33S 38°39' E 141°11'1716.6
2015-Jan-22 07:33S 38°42' E 141°32'1716.6
2015-Jan-22 06:33S 38°45' E 141°53'1716.6
2015-Jan-22 05:33S 38°47' E 142°14'1616.3
2015-Jan-22 04:33S 38°50' E 142°35'1616.6
2015-Jan-22 03:33S 38°52' E 142°56'  
2015-Jan-19 21:32S 38°57' E 145°38'9 8.3
2015-Jan-19 20:30S 39°01' E 145°47'8 8.2
2015-Jan-19 19:31S 39°06' E 145°55'8 8.4
2015-Jan-19 18:33S 39°11' E 146°04'9 8.7
2015-Jan-19 17:33S 39°12' E 146°15'9 9.4
2015-Jan-19 16:33S 39°10' E 146°26'9 9.1
2015-Jan-19 15:33S 39°07' E 146°38'9 9.0
2015-Jan-19 14:33S 39°04' E 146°48'9 9.2
2015-Jan-19 13:33S 39°01' E 146°60'10 9.6
2015-Jan-19 12:33S 38°58' E 147°12'1010.1
2015-Jan-19 11:33S 38°55' E 147°24'1310.4
2015-Jan-19 10:16S 38°51' E 147°40'58 9.4
2015-Jan-19 04:05S 38°23' E 148°46'5 8.4
2015-Jan-19 03:31S 38°21' E 148°51'8 8.3
2015-Jan-19 02:32S 38°16' E 148°59'8 8.2
2015-Jan-19 01:33S 38°11' E 149°07'8 8.1
2015-Jan-19 00:32S 38°06' E 149°16'2015.6
2015-Jan-18 23:15S 37°54' E 149°36'1216.2
2015-Jan-18 22:33S 37°47' E 149°48'1616.4
2015-Jan-18 21:33S 37°37' E 150°04'1615.8
2015-Jan-18 20:33S 37°23' E 150°12'1816.4
2015-Jan-18 19:27S 37°06' E 150°19'  
Track history (hours):
 
Tides and Currents Weather Stations Pressure Air Temp Water Temp Dewpoint Dewpoint Depression Visibility Wind Speed Wind Dir Waves Ship Positions

Dal Kalahari

Last reported at 2015-Jan-28 16:29 UTC. Time now 2015-Jan-30 20:11 UTC.
Position S 27°04' E 112°36'.

Length 266 m; beam 37 m; draft 12.5 m.

Type: Cargo ship. MMSI: 636090797.

Date/timePositionNaut miles runAvg speedWind from/ knotsBaromVisibWave heightAir tempDewpointWater temp
2015-Jan-28 16:29S 27°04' E 112°36'2914.4
2015-Jan-28 14:29S 27°31' E 112°47'30114.4
2015-Jan-27 17:33S 31°54' E 115°34'1312.5
2015-Jan-27 16:33S 32°03' E 115°44'1 1.1
2015-Jan-27 15:31S 32°03' E 115°45'0 0.0
2015-Jan-27 14:31S 32°03' E 115°45'0 0.0
2015-Jan-27 13:31S 32°03' E 115°45'0 0.0
2015-Jan-27 12:31S 32°03' E 115°45'0 0.0
2015-Jan-27 11:31S 32°03' E 115°45'0 0.0
2015-Jan-27 10:31S 32°03' E 115°45'0 0.0
2015-Jan-27 09:31S 32°03' E 115°45'0 0.0
2015-Jan-27 08:31S 32°03' E 115°45'0 0.0
2015-Jan-27 07:31S 32°03' E 115°45'0 0.0
2015-Jan-27 06:31S 32°03' E 115°45'0 0.0
2015-Jan-27 05:31S 32°03' E 115°45'0 0.0
2015-Jan-27 04:31S 32°03' E 115°45'0 0.0
2015-Jan-27 03:31S 32°03' E 115°45'0 0.0
2015-Jan-27 02:31S 32°03' E 115°45'0 0.0
2015-Jan-27 01:31S 32°03' E 115°45'0 0.0
2015-Jan-27 00:31S 32°03' E 115°45'0 0.0
2015-Jan-26 23:31S 32°03' E 115°45'0 0.0
2015-Jan-26 22:31S 32°03' E 115°45'0 0.0
2015-Jan-26 21:31S 32°03' E 115°45'0 0.0
2015-Jan-26 20:31S 32°03' E 115°45'0 0.0
2015-Jan-26 19:31S 32°03' E 115°45'0 0.0
2015-Jan-26 18:31S 32°03' E 115°45'0 0.0
2015-Jan-26 17:31S 32°03' E 115°45'0 0.0
2015-Jan-26 16:31S 32°03' E 115°45'0 0.0
2015-Jan-26 15:31S 32°03' E 115°45'0 0.0
2015-Jan-26 14:31S 32°03' E 115°45'3 3.2
2015-Jan-26 13:33S 32°01' E 115°42'1111.2
2015-Jan-26 12:33S 31°56' E 115°30'1313.1
2015-Jan-26 11:33S 32°06' E 115°21'1615.8
2015-Jan-26 10:33S 32°21' E 115°15'1515.1
2015-Jan-26 09:33S 32°36' E 115°09'1514.9
2015-Jan-26 08:33S 32°50' E 115°04'  
2015-Jan-22 11:29S 38°30' E 140°09'4916.7
2015-Jan-22 08:33S 38°39' E 141°11'1716.6
2015-Jan-22 07:33S 38°42' E 141°32'1716.6
2015-Jan-22 06:33S 38°45' E 141°53'1716.6
2015-Jan-22 05:33S 38°47' E 142°14'1616.3
2015-Jan-22 04:33S 38°50' E 142°35'1616.6
2015-Jan-22 03:33S 38°52' E 142°56'  
2015-Jan-19 21:32S 38°57' E 145°38'9 8.3
2015-Jan-19 20:30S 39°01' E 145°47'8 8.2
2015-Jan-19 19:31S 39°06' E 145°55'8 8.4
2015-Jan-19 18:33S 39°11' E 146°04'9 8.7
2015-Jan-19 17:33S 39°12' E 146°15'9 9.4
2015-Jan-19 16:33S 39°10' E 146°26'9 9.1
2015-Jan-19 15:33S 39°07' E 146°38'9 9.0
2015-Jan-19 14:33S 39°04' E 146°48'9 9.2
2015-Jan-19 13:33S 39°01' E 146°60'10 9.6
2015-Jan-19 12:33S 38°58' E 147°12'1010.1
2015-Jan-19 11:33S 38°55' E 147°24'1310.4
2015-Jan-19 10:16S 38°51' E 147°40'58 9.4
2015-Jan-19 04:05S 38°23' E 148°46'5 8.4
2015-Jan-19 03:31S 38°21' E 148°51'8 8.3
2015-Jan-19 02:32S 38°16' E 148°59'8 8.2
2015-Jan-19 01:33S 38°11' E 149°07'8 8.1
2015-Jan-19 00:32S 38°06' E 149°16'2015.6
2015-Jan-18 23:15S 37°54' E 149°36'1216.2
2015-Jan-18 22:33S 37°47' E 149°48'1616.4
2015-Jan-18 21:33S 37°37' E 150°04'1615.8
2015-Jan-18 20:33S 37°23' E 150°12'1816.4
2015-Jan-18 19:27S 37°06' E 150°19'  

Dump ship's entire track history